Apex, North Carolina
Current Conditions -  °F | °C
As of 11:51 AM on Thursday 23 Oct 2014 (Local Time) from KRDU Reporting Station
Clear Clear  
Wind Chill: 17°   Ceiling: Unl
Heat Index: 17°   Visibility: 10mi
Dew Point:   Wind: 3mph
Humidity: 48%   Direction: NA
Pressure: 30.02"   Gusts: NA
Location:  35.73°N, 78.84°W
Report Text: KRDU 231551Z VRB03KT 10SM CLR 17/06 A3002 RMK AO2 SLP165 T01670056
Loading
Personal Weather Stations






























Interactive Weather Map
Tropical Storm Tracking
New forecast layout! Learn more

10-Day Weather Forecast

Advertisements
Track Severe Weather on mobile